Time;durP1;ratioP1;P1;durP2;ratioP2;P2;SDS_P1;SDS_P2;PMS_P1;PMS_P2;Temp;Humidity;BMP_temperature;BMP_pressure;BME280_temperature;BME280_humidity;BME280_pressure;Samples;Min_cycle;Max_cycle;Signal;HPM_P1;HPM_P2
2022/03/17 00:09:37;;;;;;;194.00;73.20;;;;;;;0.71;57.99;99911.77;432511;1270;108819;-43
2022/03/17 00:19:44;;;;;;;129.90;58.00;;;;;;;0.61;58.25;99919.06;432500;1269;99354;-43
2022/03/17 00:29:52;;;;;;;121.40;50.70;;;;;;;0.67;58.39;99921.11;432384;1270;112428;-41
2022/03/17 00:39:59;;;;;;;172.30;69.70;;;;;;;0.70;58.66;99914.26;432406;1270;108970;-44
2022/03/17 00:50:06;;;;;;;158.20;65.10;;;;;;;0.74;59.28;99915.77;432405;1270;98307;-41
2022/03/17 01:00:18;;;;;;;134.60;57.40;;;;;;;0.60;59.19;99922.56;432920;1270;112817;-42
2022/03/17 01:10:26;;;;;;;106.10;52.40;;;;;;;0.88;59.87;99927.53;432729;1270;107733;-42
2022/03/17 01:20:32;;;;;;;117.70;53.70;;;;;;;1.36;59.86;99925.15;432599;1269;98380;-41
2022/03/17 01:30:40;;;;;;;124.70;58.70;;;;;;;1.74;60.25;99930.31;432278;1270;112441;-41
2022/03/17 01:40:47;;;;;;;125.50;61.60;;;;;;;1.96;60.25;99930.97;432464;1270;108874;-41
2022/03/17 02:01:00;;;;;;;116.10;54.10;;;;;;;1.64;59.79;99949.52;432729;1270;111850;-45
2022/03/17 02:21:35;;;;;;;124.10;60.90;;;;;;;1.46;60.62;99953.82;432580;1270;99266;-41
2022/03/17 02:31:41;;;;;;;;;;;;;;;1.27;60.70;99955.15;433166;1260;112333;-42
2022/03/17 02:41:49;;;;;;;118.10;59.90;;;;;;;0.93;60.88;99961.18;432561;1270;108858;-42
2022/03/17 02:51:55;;;;;;;122.20;59.30;;;;;;;0.59;61.08;99953.20;432332;1270;99251;-42
2022/03/17 03:02:04;;;;;;;126.70;61.50;;;;;;;0.24;61.42;99952.92;432447;1270;112396;-41
2022/03/17 03:12:11;;;;;;;115.10;58.60;;;;;;;-0.01;61.67;99967.52;432483;1270;108995;-42
2022/03/17 03:32:27;;;;;;;99.20;48.80;;;;;;;-0.20;62.31;100007.52;432406;1270;109227;-41
2022/03/17 03:42:34;;;;;;;111.90;59.20;;;;;;;-0.15;62.46;100014.98;432531;1270;99250;-42
2022/03/17 03:52:41;;;;;;;151.10;70.80;;;;;;;-0.15;63.30;100001.16;432557;1270;112655;-41
2022/03/17 04:02:48;;;;;;;144.20;66.00;;;;;;;0.04;63.49;100005.34;432616;1270;108530;-42
2022/03/17 04:12:57;;;;;;;109.10;58.30;;;;;;;0.18;63.62;100006.92;432362;1268;99308;-43
2022/03/17 04:23:04;;;;;;;96.10;50.80;;;;;;;0.51;63.78;100019.46;432621;1270;108928;-42
2022/03/17 04:33:11;;;;;;;122.70;60.20;;;;;;;0.74;64.01;100029.02;432454;1271;99282;-41
2022/03/17 04:53:32;;;;;;;129.00;67.10;;;;;;;0.49;64.43;100021.88;432671;1270;109201;-43
2022/03/17 05:03:40;;;;;;;103.10;48.20;;;;;;;0.43;65.11;100014.96;432511;1271;99856;-42
2022/03/17 05:13:48;;;;;;;90.20;47.10;;;;;;;0.62;65.35;100015.20;432642;1271;108808;-44
2022/03/17 05:23:56;;;;;;;129.90;62.80;;;;;;;0.85;65.80;100019.66;432524;1271;99252;-41
2022/03/17 05:34:03;;;;;;;128.40;62.50;;;;;;;0.88;66.04;100035.70;432540;1270;112513;-40
2022/03/17 05:44:10;;;;;;;146.60;67.50;;;;;;;1.39;66.18;100038.88;432353;1271;108715;-40
2022/03/17 05:54:17;;;;;;;83.30;45.30;;;;;;;2.29;65.39;100051.91;432400;1270;99292;-41
2022/03/17 06:04:24;;;;;;;105.00;56.80;;;;;;;3.15;64.52;100063.94;432535;1271;111388;-40
2022/03/17 06:14:32;;;;;;;118.40;59.60;;;;;;;3.76;63.83;100076.69;432562;1270;108872;-41
2022/03/17 06:24:39;;;;;;;111.50;58.90;;;;;;;4.21;62.89;100088.70;432634;1270;98017;-41
2022/03/17 06:34:46;;;;;;;110.40;57.10;;;;;;;4.53;61.89;100094.79;432472;1271;112684;-42
2022/03/17 06:44:53;;;;;;;107.30;55.10;;;;;;;4.91;61.22;100115.69;432581;1271;108827;-42
2022/03/17 06:55:01;;;;;;;108.60;55.20;;;;;;;5.34;60.12;100127.82;432788;1271;98071;-42
2022/03/17 07:05:07;;;;;;;100.70;53.00;;;;;;;5.90;59.23;100129.83;432616;1271;112673;-40
2022/03/17 07:25:21;;;;;;;104.00;53.20;;;;;;;6.10;57.67;100139.23;432569;1270;99255;-41
2022/03/17 07:35:29;;;;;;;99.30;52.80;;;;;;;6.46;57.15;100149.99;432706;1271;112425;-41
2022/03/17 07:45:36;;;;;;;92.70;50.90;;;;;;;6.37;56.29;100158.61;432498;1271;109083;-41
2022/03/17 07:55:44;;;;;;;85.80;46.40;;;;;;;6.39;56.04;100171.36;432480;1271;98046;-42
2022/03/17 08:05:52;;;;;;;83.00;45.90;;;;;;;6.57;55.39;100190.59;432484;1271;112450;-41
2022/03/17 08:16:01;;;;;;;81.30;43.90;;;;;;;7.27;55.00;100198.35;432565;1271;108810;-41
2022/03/17 08:26:09;;;;;;;62.50;34.80;;;;;;;7.94;53.90;100199.23;432605;1271;98016;-43
2022/03/17 08:36:16;;;;;;;29.90;18.90;;;;;;;8.46;51.59;100194.98;432685;1271;112541;-41
2022/03/17 08:56:48;;;;;;;33.20;18.20;;;;;;;8.96;45.92;100183.44;432596;1271;99296;-43
2022/03/17 09:06:59;;;;;;;28.20;17.60;;;;;;;9.15;45.77;100191.02;432036;1271;747511;-41
2022/03/17 09:17:07;;;;;;;26.00;16.10;;;;;;;9.47;44.70;100192.00;432540;1271;108892;-41
2022/03/17 09:27:14;;;;;;;30.60;18.50;;;;;;;9.49;42.70;100194.72;432383;1271;99330;-42
2022/03/17 09:37:18;;;;;;;27.80;15.90;;;;;;;9.43;42.21;100211.25;432449;1271;111912;-43
2022/03/17 09:57:34;;;;;;;26.40;15.70;;;;;;;9.59;41.49;100213.48;432646;1270;98038;-42
2022/03/17 10:07:41;;;;;;;33.80;18.30;;;;;;;9.51;40.77;100222.12;432528;1270;108952;-42
2022/03/17 10:17:47;;;;;;;26.20;15.50;;;;;;;9.65;41.29;100224.88;432575;1271;99354;-41
2022/03/17 10:27:56;;;;;;;25.20;15.70;;;;;;;9.79;40.06;100222.05;432472;1270;112388;-42
2022/03/17 10:48:14;;;;;;;23.70;14.10;;;;;;;9.58;39.78;100215.36;432335;1270;99273;-40
2022/03/17 10:58:22;;;;;;;26.00;15.90;;;;;;;9.68;39.15;100213.67;432411;1271;108760;-42
2022/03/17 11:08:29;;;;;;;22.80;14.20;;;;;;;9.45;38.51;100213.30;432238;1270;99273;-42
2022/03/17 11:18:39;;;;;;;34.70;15.80;;;;;;;9.73;39.10;100215.98;432420;1270;113078;-41
2022/03/17 11:49:24;;;;;;;32.60;18.30;;;;;;;10.00;38.99;100202.92;432531;1270;113214;-41
2022/03/17 12:09:37;;;;;;;25.00;15.00;;;;;;;9.94;39.16;100186.16;432660;1270;99249;-40
2022/03/17 12:29:58;;;;;;;23.90;15.10;;;;;;;9.70;39.40;100167.16;432611;1271;98066;-41
2022/03/17 12:40:07;;;;;;;22.30;15.20;;;;;;;9.70;38.86;100172.32;432569;1270;112442;-42
2022/03/17 12:50:14;;;;;;;;;;;;;;;9.68;38.74;100174.86;432493;1270;108855;-43
2022/03/17 13:10:28;;;;;;;24.40;15.40;;;;;;;9.29;38.50;100176.98;432492;1271;109032;-40
2022/03/17 13:20:35;;;;;;;26.50;16.00;;;;;;;9.11;38.65;100184.70;432542;1271;99270;-45
2022/03/17 13:30:53;;;;;;;27.20;17.10;;;;;;;8.94;39.00;100181.78;432482;1270;112323;-44
2022/03/17 13:41:01;;;;;;;36.70;16.40;;;;;;;8.76;39.23;100174.98;432395;1270;108889;-42
2022/03/17 13:51:08;;;;;;;38.10;15.70;;;;;;;8.62;39.35;100175.34;432476;1270;99257;-40
2022/03/17 14:01:16;;;;;;;45.20;20.60;;;;;;;8.57;39.58;100178.92;432567;1270;108755;-42
2022/03/17 14:11:26;;;;;;;30.30;16.10;;;;;;;8.50;39.73;100184.18;432659;1268;99257;-41
2022/03/17 14:24:10;;;;;;;28.10;15.30;;;;;;;8.39;39.82;100187.61;432416;1270;112513;-41
2022/03/17 14:32:03;;;;;;;34.90;18.40;;;;;;;8.32;39.98;100183.08;432522;1270;108968;-40
2022/03/17 14:42:09;;;;;;;20.10;13.70;;;;;;;8.18;39.71;100170.80;432620;1270;97970;-40
2022/03/17 15:02:21;;;;;;;26.40;13.40;;;;;;;7.85;39.94;100166.20;432688;1271;108573;-41
2022/03/17 15:12:29;;;;;;;23.90;14.10;;;;;;;7.68;39.71;100157.91;432481;1270;99282;-40
2022/03/17 15:22:38;;;;;;;27.70;14.50;;;;;;;7.56;39.92;100160.91;432474;1271;112436;-40
2022/03/17 15:42:55;;;;;;;34.70;15.20;;;;;;;7.31;40.05;100184.30;432382;1270;99382;-43
2022/03/17 15:53:03;;;;;;;28.00;14.30;;;;;;;7.18;40.19;100190.54;432484;1270;112235;-41
2022/03/17 16:03:12;;;;;;;28.20;13.90;;;;;;;7.03;40.47;100188.63;432405;1271;109021;-41
2022/03/17 16:23:45;;;;;;;31.00;15.10;;;;;;;6.73;40.58;100196.74;432484;1270;112514;-42
2022/03/17 16:33:54;;;;;;;25.20;12.50;;;;;;;6.57;40.48;100201.82;432471;1271;108852;-43
2022/03/17 16:44:01;;;;;;;40.60;16.40;;;;;;;6.40;40.63;100207.15;432547;1270;99288;-43
2022/03/17 16:54:07;;;;;;;32.30;15.10;;;;;;;6.22;40.71;100225.86;432571;1270;112547;-43
2022/03/17 17:04:15;;;;;;;48.20;18.20;;;;;;;6.04;40.88;100230.19;432504;1270;108876;-42
2022/03/17 17:14:22;;;;;;;43.20;15.30;;;;;;;5.89;41.07;100246.19;432380;1270;99230;-41
2022/03/17 17:34:55;;;;;;;78.90;28.40;;;;;;;5.63;41.37;100267.92;432554;1270;99280;-42
2022/03/17 17:45:04;;;;;;;68.10;26.50;;;;;;;5.49;41.49;100282.24;432370;1271;112461;-41
2022/03/17 17:55:13;;;;;;;54.50;21.90;;;;;;;5.39;41.61;100290.00;432591;1270;108941;-40
2022/03/17 18:05:20;;;;;;;55.00;23.60;;;;;;;5.22;41.75;100302.53;432666;1270;99305;-42
2022/03/17 18:15:28;;;;;;;59.60;25.00;;;;;;;5.00;42.01;100293.37;432543;1271;112567;-46
2022/03/17 18:25:36;;;;;;;50.00;22.50;;;;;;;4.88;42.25;100298.79;432436;1270;108403;-43
2022/03/17 18:35:43;;;;;;;45.00;19.50;;;;;;;4.76;42.25;100298.02;432488;1270;97979;-42
2022/03/17 18:45:49;;;;;;;51.50;22.50;;;;;;;4.68;42.27;100312.59;432277;1270;107682;-41
2022/03/17 18:55:57;;;;;;;41.30;19.30;;;;;;;4.61;42.43;100322.44;432449;1271;98259;-42
2022/03/17 19:06:04;;;;;;;46.60;17.70;;;;;;;4.49;42.48;100326.22;432448;1270;112472;-41
2022/03/17 19:16:11;;;;;;;61.00;25.50;;;;;;;4.37;42.48;100341.71;432566;1270;108866;-42
2022/03/17 19:26:23;;;;;;;63.00;24.50;;;;;;;4.26;42.58;100354.27;432478;1270;99356;-43
2022/03/17 19:36:30;;;;;;;44.30;21.20;;;;;;;4.14;42.73;100350.92;432679;1271;112723;-43
2022/03/17 19:46:38;;;;;;;83.60;28.50;;;;;;;4.04;42.63;100358.46;432488;1271;108654;-43
2022/03/17 19:56:46;;;;;;;53.50;21.40;;;;;;;3.97;42.58;100370.25;432630;1270;99258;-41
2022/03/17 20:06:53;;;;;;;46.80;20.90;;;;;;;3.92;42.77;100371.16;432486;1271;113327;-41
2022/03/17 20:17:07;;;;;;;47.30;20.20;;;;;;;3.80;42.57;100381.04;432597;1271;108831;-43
2022/03/17 20:27:14;;;;;;;52.00;20.80;;;;;;;3.62;42.64;100387.22;432579;1271;98083;-41
2022/03/17 20:37:21;;;;;;;64.20;22.20;;;;;;;3.52;42.80;100392.02;432697;1271;112444;-41
2022/03/17 20:47:29;;;;;;;59.20;21.30;;;;;;;3.43;42.78;100405.83;432755;1270;108778;-42
2022/03/17 20:57:37;;;;;;;68.30;24.40;;;;;;;3.34;42.89;100423.63;432413;1270;99260;-41
2022/03/17 21:07:45;;;;;;;47.00;21.20;;;;;;;3.22;42.96;100434.77;428591;1271;5386197;-42
2022/03/17 21:27:56;;;;;;;61.40;24.00;;;;;;;2.93;43.15;100448.41;432383;1270;99378;-43
2022/03/17 21:38:04;;;;;;;61.70;23.50;;;;;;;2.77;43.56;100448.80;432548;1271;112892;-41
2022/03/17 21:48:11;;;;;;;61.30;23.70;;;;;;;2.63;43.56;100450.87;432611;1271;108549;-41
2022/03/17 21:58:18;;;;;;;50.80;21.40;;;;;;;2.53;43.65;100448.96;432528;1271;98358;-40
2022/03/17 22:08:24;;;;;;;73.00;27.70;;;;;;;2.43;43.81;100454.36;432621;1271;108926;-41
2022/03/17 22:18:30;;;;;;;55.50;23.40;;;;;;;2.33;44.01;100459.95;432612;1270;97992;-43
2022/03/17 22:28:37;;;;;;;69.60;27.40;;;;;;;2.22;44.21;100468.33;432338;1271;112411;-41
2022/03/17 22:38:47;;;;;;;73.80;25.80;;;;;;;2.10;44.40;100477.21;432622;1271;108773;-42
2022/03/17 22:48:56;;;;;;;62.10;23.00;;;;;;;2.01;44.52;100475.17;432568;1268;99286;-41
2022/03/17 22:59:03;;;;;;;62.30;23.50;;;;;;;1.91;44.74;100474.87;432404;1271;110750;-40
2022/03/17 23:09:11;;;;;;;64.80;26.60;;;;;;;1.84;44.87;100483.58;432570;1271;108893;-41
2022/03/17 23:19:18;;;;;;;43.70;21.60;;;;;;;1.71;45.10;100492.49;432348;1271;99276;-41
2022/03/17 23:29:25;;;;;;;54.10;21.50;;;;;;;1.63;45.14;100505.88;432619;1271;112583;-41
2022/03/17 23:39:32;;;;;;;45.10;20.70;;;;;;;1.51;45.19;100527.04;432475;1270;108217;-43
2022/03/17 23:49:40;;;;;;;53.70;22.80;;;;;;;1.40;45.49;100535.73;432396;1270;99248;-42
2022/03/17 23:59:47;;;;;;;48.10;21.30;;;;;;;1.28;45.74;100529.45;432639;1270;112481;-41
